aviador You're here:

PAPM Decoded Metar

PORT MOLLER in AK, USA
Report Time2017-09-20 06:56:00
UTC Time2017-09-20 07:28:00
Flight Rules mvfr MVFR
Wind200° at 09 kt
W.Decomp.*RWY 14: 6.5 kt HW 6.3 kt RCW
W.Rank200° ranks 16
Current wind is below 200° avg. (10.0)
Visibility9999 m
Phenomena:N/A
Clouds:Overcast 025 Hf
Expected CloudBase > 1,600 ft AGL from Temp-Dew spread
Ceiling2,500 ft
Temp08°C (ISA -7)
Dew Point04°C (76% RH)
AAT3.4°C
QNH1022 hPa
Density Alt-1,014 ft
Elevation16 ft
Report Wrong Elevation
Raw Report
PAPM 200656Z AUTO 20009KT 10SM OVC025 08/04 A3018 RMK AO2 SLP223
T00830039=

Extra information for PAPM:More info

Metar Taf Metar & Taf Last 4 Metars F.Rules Stats Wind Profile Meteogram Temp Stats Airport Information Weather charts Add Link Nearby VenuesMetar ALERT Operation Metar Decoded Social comments

AIRNAV info for PAPM